Time;durP1;ratioP1;P1;durP2;ratioP2;P2;SDS_P1;SDS_P2;PMS_P1;PMS_P2;Temp;Humidity;BMP_temperature;BMP_pressure;BME280_temperature;BME280_humidity;BME280_pressure;Samples;Min_cycle;Max_cycle;Signal;HPM_P1;HPM_P2
2022/07/04 00:01:05;;;;;;;4.57;2.70;;;;;;;23.51;49.11;99797.69;4347744;33;33747;-76
2022/07/04 00:03:33;;;;;;;2.08;1.80;;;;;;;23.44;49.49;99794.66;4348024;33;35175;-76
2022/07/04 00:06:00;;;;;;;2.42;1.70;;;;;;;23.47;49.28;99791.19;4348169;33;34320;-75
2022/07/04 00:08:28;;;;;;;2.50;1.90;;;;;;;23.63;48.30;99791.41;4347985;33;33837;-81
2022/07/04 00:10:55;;;;;;;2.10;1.75;;;;;;;23.56;48.48;99800.25;4347679;33;34003;-76
2022/07/04 00:13:23;;;;;;;2.80;2.00;;;;;;;23.39;48.94;99798.44;4347966;33;34418;-79
2022/07/04 00:15:50;;;;;;;2.60;1.80;;;;;;;23.16;49.58;99795.09;4347943;33;34275;-77
2022/07/04 00:18:18;;;;;;;2.30;1.95;;;;;;;22.78;50.18;99795.84;4348038;33;33291;-77
2022/07/04 00:20:45;;;;;;;3.42;2.30;;;;;;;22.71;50.31;99799.09;4348069;33;34522;-81
2022/07/04 00:23:13;;;;;;;3.28;1.90;;;;;;;22.62;50.53;99798.31;4347653;33;35084;-77
2022/07/04 00:25:41;;;;;;;2.85;1.98;;;;;;;22.70;50.54;99797.50;4347951;33;34045;-78
2022/07/04 00:28:08;;;;;;;2.55;2.03;;;;;;;22.71;51.01;99801.88;4348157;33;32919;-80
2022/07/04 00:30:36;;;;;;;3.33;2.17;;;;;;;22.68;51.20;99807.28;4347350;33;33932;-78
2022/07/04 00:33:03;;;;;;;2.72;2.05;;;;;;;22.89;50.92;99805.44;4347900;33;34008;-78
2022/07/04 00:35:31;;;;;;;2.42;1.90;;;;;;;22.92;51.01;99803.94;4348075;33;34317;-78
2022/07/04 00:37:58;;;;;;;3.05;2.10;;;;;;;22.80;51.32;99799.09;4348051;33;34562;-78
2022/07/04 00:40:26;;;;;;;2.85;2.30;;;;;;;22.07;53.29;99798.97;4347710;33;34169;-77
2022/07/04 00:42:53;;;;;;;3.55;2.30;;;;;;;22.52;52.10;99793.94;4347991;33;34241;-80
2022/07/04 00:45:21;;;;;;;3.05;2.05;;;;;;;22.59;51.91;99790.69;4347373;33;34882;-79
2022/07/04 00:47:48;;;;;;;1.98;1.70;;;;;;;22.38;52.66;99800.81;4347546;33;34581;-78
2022/07/04 00:50:16;;;;;;;3.30;2.30;;;;;;;22.38;52.53;99796.09;4347761;33;34932;-80
2022/07/04 00:52:43;;;;;;;3.20;1.95;;;;;;;22.57;51.97;99797.66;4347677;33;35093;-77
2022/07/04 00:55:11;;;;;;;2.42;1.90;;;;;;;22.34;52.74;99794.31;4347221;33;34324;-79
2022/07/04 00:57:38;;;;;;;2.28;1.83;;;;;;;22.15;52.99;99797.38;4358482;32;33750;-80
2022/07/04 01:00:06;;;;;;;2.90;1.80;;;;;;;22.20;52.75;99800.78;4347391;33;34826;-77
2022/07/04 01:02:34;;;;;;;2.45;1.83;;;;;;;22.30;52.64;99794.13;4347365;33;35195;-78
2022/07/04 01:05:01;;;;;;;3.12;2.10;;;;;;;22.26;53.01;99796.72;4347479;33;34983;-77
2022/07/04 01:07:29;;;;;;;2.62;2.20;;;;;;;21.99;53.57;99794.28;4347703;33;33911;-75
2022/07/04 01:09:57;;;;;;;2.67;2.08;;;;;;;21.85;53.94;99800.75;4347145;33;34141;-75
2022/07/04 01:12:26;;;;;;;2.58;2.05;;;;;;;22.04;53.53;99799.62;4347293;33;34190;-76
2022/07/04 01:14:54;;;;;;;2.15;1.70;;;;;;;22.39;52.62;99796.91;4347109;33;34324;-76
2022/07/04 01:17:22;;;;;;;3.92;2.47;;;;;;;22.51;52.23;99800.63;4347475;33;33702;-76
2022/07/04 01:19:49;;;;;;;2.97;1.90;;;;;;;22.20;52.91;99798.03;4347297;33;33904;-75
2022/07/04 01:22:18;;;;;;;2.90;2.00;;;;;;;22.23;52.89;99811.22;4348347;33;34137;-71
2022/07/04 01:24:46;;;;;;;2.28;1.90;;;;;;;22.49;51.61;99797.38;4348643;33;35175;-72
2022/07/04 01:27:15;;;;;;;2.58;1.70;;;;;;;21.96;52.98;99806.78;4349330;33;34515;-70
2022/07/04 01:29:42;;;;;;;4.68;2.25;;;;;;;21.67;53.41;99804.63;4348742;33;33892;-71
2022/07/04 01:32:10;;;;;;;2.78;1.87;;;;;;;21.19;55.66;99799.91;4348933;33;34425;-71
2022/07/04 01:34:38;;;;;;;3.00;1.95;;;;;;;20.92;56.78;99795.41;4349534;33;34270;-70
2022/07/04 01:37:10;;;;;;;3.78;2.28;;;;;;;20.80;57.26;99798.72;4348801;33;33715;-70
2022/07/04 01:39:38;;;;;;;2.65;2.15;;;;;;;20.37;58.67;99791.78;4348877;33;33811;-71
2022/07/04 01:42:06;;;;;;;3.92;2.25;;;;;;;20.39;58.63;99805.25;4349059;33;34177;-71
2022/07/04 01:44:34;;;;;;;2.95;2.20;;;;;;;20.25;59.34;99797.84;4348925;33;34254;-70
2022/07/04 01:47:02;;;;;;;3.65;2.33;;;;;;;20.56;58.35;99801.81;4349001;33;33455;-71
2022/07/04 01:49:29;;;;;;;2.72;2.20;;;;;;;21.16;56.67;99798.59;4348643;33;33466;-70
2022/07/04 01:51:57;;;;;;;2.40;1.87;;;;;;;21.48;55.43;99802.13;4348697;33;34349;-71
2022/07/04 01:54:26;;;;;;;4.05;2.40;;;;;;;21.53;55.49;99813.03;4348892;33;33717;-70
2022/07/04 01:56:53;;;;;;;3.10;2.33;;;;;;;21.42;55.75;99812.50;4348806;33;33855;-70
2022/07/04 02:01:29;;;;;;;3.17;2.22;;;;;;;21.59;55.05;99808.19;4348516;33;34072;-71
2022/07/04 02:02:08;;;;;;;5.07;2.42;;;;;;;21.65;54.65;99806.91;4349033;33;34123;-70
2022/07/04 02:04:38;;;;;;;3.12;2.22;;;;;;;21.69;54.50;99805.94;4348659;33;34491;-70
2022/07/04 02:07:05;;;;;;;2.80;2.20;;;;;;;21.79;54.24;99804.81;4348969;33;34633;-71
2022/07/04 02:09:33;;;;;;;2.58;1.95;;;;;;;21.74;54.19;99809.69;4348846;33;33947;-72
2022/07/04 02:14:46;;;;;;;4.35;2.55;;;;;;;21.79;53.79;99809.50;4348562;33;35003;-71
2022/07/04 02:17:14;;;;;;;3.30;2.30;;;;;;;21.38;54.85;99816.19;4348973;33;34479;-70
2022/07/04 02:19:42;;;;;;;3.87;2.72;;;;;;;21.10;55.45;99814.47;4349164;33;33960;-70
2022/07/04 02:22:09;;;;;;;3.47;2.20;;;;;;;21.14;55.43;99811.06;4348817;33;34288;-72
2022/07/04 02:24:37;;;;;;;3.67;2.33;;;;;;;21.29;55.30;99799.59;4348694;33;35166;-71
2022/07/04 02:27:05;;;;;;;2.80;2.00;;;;;;;21.40;55.17;99803.69;4348489;33;33703;-73
2022/07/04 02:29:32;;;;;;;3.65;2.20;;;;;;;21.34;55.24;99802.25;4335474;33;34261;-73
2022/07/04 02:32:00;;;;;;;3.50;2.47;;;;;;;21.40;55.07;99809.22;4348198;33;34325;-71
2022/07/04 02:34:28;;;;;;;4.00;2.50;;;;;;;21.52;54.57;99803.13;4348746;33;34944;-71
2022/07/04 02:36:55;;;;;;;2.90;2.33;;;;;;;21.40;54.75;99809.22;4348798;33;34472;-72
2022/07/04 02:39:24;;;;;;;3.42;2.33;;;;;;;21.69;54.08;99821.69;4348589;33;33957;-74
2022/07/04 02:41:51;;;;;;;3.30;2.30;;;;;;;21.37;55.04;99815.38;4347899;33;35026;-74
2022/07/04 02:44:23;;;;;;;2.65;2.00;;;;;;;21.18;55.70;99815.63;4348766;33;35144;-74
2022/07/04 02:46:51;;;;;;;3.03;2.30;;;;;;;21.25;55.38;99809.66;4348454;33;34438;-73
2022/07/04 02:49:19;;;;;;;2.90;2.25;;;;;;;21.34;55.03;99821.56;4348597;33;34129;-73
2022/07/04 02:51:47;;;;;;;2.92;2.08;;;;;;;21.54;54.35;99814.66;4348730;33;33852;-71
2022/07/04 02:54:15;;;;;;;4.25;2.83;;;;;;;21.09;55.45;99818.34;4348317;33;34916;-75
2022/07/04 02:56:43;;;;;;;3.53;2.50;;;;;;;20.84;56.24;99817.09;4348420;33;33376;-73
2022/07/04 02:59:10;;;;;;;2.45;1.85;;;;;;;20.85;56.61;99820.69;4347947;33;34278;-72
2022/07/04 03:01:38;;;;;;;3.30;2.10;;;;;;;21.05;56.17;99827.59;4348540;33;35206;-71
2022/07/04 03:04:05;;;;;;;3.53;2.28;;;;;;;20.74;56.40;99822.06;4348544;33;34961;-72
2022/07/04 03:06:33;;;;;;;5.40;2.40;;;;;;;20.80;56.63;99827.13;4348546;33;34597;-73
2022/07/04 03:09:00;;;;;;;2.90;2.22;;;;;;;20.87;56.48;99821.97;4347737;33;33981;-75
2022/07/04 03:11:28;;;;;;;3.40;2.22;;;;;;;20.61;57.17;99821.81;4348358;33;34337;-73
2022/07/04 03:13:56;;;;;;;2.95;2.17;;;;;;;20.47;57.99;99819.13;4348547;33;34858;-73
2022/07/04 03:16:23;;;;;;;4.25;2.53;;;;;;;20.33;58.48;99815.59;4348003;33;33771;-72
2022/07/04 03:18:50;;;;;;;2.67;1.98;;;;;;;20.50;57.38;99817.66;4358653;32;33737;-72
2022/07/04 03:21:18;;;;;;;3.22;2.22;;;;;;;20.65;56.41;99822.81;4348426;33;34318;-74
2022/07/04 03:23:58;;;;;;;4.10;2.45;;;;;;;21.17;54.95;99829.78;4348128;33;35034;-72
2022/07/04 03:26:30;;;;;;;3.03;2.22;;;;;;;21.55;53.71;99827.31;4347778;33;33797;-73
2022/07/04 03:28:59;;;;;;;3.10;2.08;;;;;;;21.67;53.22;99829.47;4348057;33;34687;-74
2022/07/04 03:31:27;;;;;;;3.62;2.30;;;;;;;22.03;52.11;99829.22;4347559;33;35062;-74
2022/07/04 03:33:55;;;;;;;2.87;2.33;;;;;;;22.26;52.54;99826.31;4347272;33;34709;-73
2022/07/04 03:36:22;;;;;;;3.45;2.30;;;;;;;22.75;51.35;99823.38;4347557;33;34386;-72
2022/07/04 03:38:50;;;;;;;3.70;2.53;;;;;;;23.22;51.24;99829.75;4348347;33;34167;-75
2022/07/04 03:41:17;;;;;;;2.80;1.87;;;;;;;23.47;50.37;99829.97;4347104;33;35226;-75
2022/07/04 03:43:45;;;;;;;2.95;1.95;;;;;;;23.75;49.95;99819.22;4346534;33;34348;-75
2022/07/04 03:46:12;;;;;;;2.37;1.87;;;;;;;23.88;50.48;99823.72;4347437;33;33747;-72
2022/07/04 03:48:43;;;;;;;3.28;2.15;;;;;;;24.12;50.13;99827.78;4348072;33;34078;-75
2022/07/04 03:51:13;;;;;;;3.28;2.10;;;;;;;24.38;49.51;99819.25;4347427;33;35170;-74
2022/07/04 03:53:42;;;;;;;2.80;2.22;;;;;;;24.31;50.15;99828.13;4347466;33;34040;-76
2022/07/04 03:56:09;;;;;;;3.70;2.22;;;;;;;24.67;49.03;99821.16;4347449;33;34683;-73
2022/07/04 03:58:37;;;;;;;3.50;2.22;;;;;;;24.90;47.57;99816.03;4347943;33;33711;-73
2022/07/04 04:01:04;;;;;;;3.60;2.40;;;;;;;24.91;49.44;99825.94;4347591;33;34222;-83
2022/07/04 04:06:18;;;;;;;3.05;2.22;;;;;;;25.32;47.49;99826.97;4347407;33;33698;-79
2022/07/04 04:08:46;;;;;;;2.67;2.00;;;;;;;25.57;46.81;99830.56;4346861;33;34126;-80
2022/07/04 04:11:13;;;;;;;3.92;2.17;;;;;;;25.55;47.88;99824.56;4347166;33;33982;-79
2022/07/04 04:13:41;;;;;;;3.97;2.05;;;;;;;25.76;47.11;99829.16;4346879;33;34078;-77
2022/07/04 04:16:09;;;;;;;2.33;2.10;;;;;;;25.95;46.50;99831.38;4346591;33;33776;-78
2022/07/04 04:18:36;;;;;;;2.65;1.95;;;;;;;26.16;45.86;99831.22;4346675;33;33937;-78
2022/07/04 04:21:04;;;;;;;4.22;2.12;;;;;;;26.40;45.82;99828.34;4346704;33;34338;-79
2022/07/04 04:23:32;;;;;;;3.70;2.00;;;;;;;26.55;45.95;99831.53;4344610;33;34793;-79
2022/07/04 04:26:00;;;;;;;2.75;1.90;;;;;;;26.68;44.72;99840.66;4346519;33;34418;-82
2022/07/04 04:28:27;;;;;;;2.62;1.98;;;;;;;26.94;43.91;99840.97;4346450;33;33683;-78
2022/07/04 04:30:55;;;;;;;2.12;1.77;;;;;;;27.15;42.86;99837.16;4346291;33;34320;-79
2022/07/04 04:33:22;;;;;;;2.60;1.85;;;;;;;27.12;43.87;99838.66;4342245;32;34140;-82
2022/07/04 04:35:50;;;;;;;2.85;2.00;;;;;;;27.11;43.99;99831.47;4352348;32;33494;-78
2022/07/04 04:38:17;;;;;;;2.42;1.67;;;;;;;27.10;43.75;99835.41;4360728;32;34033;-79
2022/07/04 04:40:45;;;;;;;3.75;2.22;;;;;;;27.06;44.36;99831.72;4361443;32;34505;-77
2022/07/04 04:43:12;;;;;;;2.28;1.90;;;;;;;27.41;41.71;99826.31;4361405;32;34119;-77
2022/07/04 04:45:40;;;;;;;2.65;1.90;;;;;;;27.23;42.94;99824.22;4350674;32;34445;-76
2022/07/04 04:48:07;;;;;;;4.78;2.10;;;;;;;27.49;41.32;99826.47;4346022;33;33584;-77
2022/07/04 04:50:35;;;;;;;3.83;2.03;;;;;;;27.98;42.24;99820.47;4346448;33;35170;-76
2022/07/04 04:53:03;;;;;;;2.35;1.75;;;;;;;27.92;40.52;99822.72;4346160;33;35112;-77
2022/07/04 04:55:30;;;;;;;3.72;1.80;;;;;;;28.14;41.60;99823.19;4346059;33;34513;-74
2022/07/04 04:57:58;;;;;;;2.35;1.60;;;;;;;28.45;41.12;99822.25;4346369;33;33965;-75
2022/07/04 05:00:25;;;;;;;3.25;2.00;;;;;;;28.93;39.05;99819.19;4345986;33;34999;-75
2022/07/04 05:02:53;;;;;;;3.05;2.10;;;;;;;28.81;38.98;99821.00;4345905;33;34979;-77
2022/07/04 05:05:20;;;;;;;3.40;1.75;;;;;;;28.96;38.79;99816.47;4346055;33;33519;-76
2022/07/04 05:07:48;;;;;;;2.85;1.95;;;;;;;28.74;38.69;99823.63;4345620;33;34090;-76
2022/07/04 05:10:15;;;;;;;3.40;2.20;;;;;;;29.40;37.61;99818.84;4346299;33;34196;-76
2022/07/04 05:12:43;;;;;;;3.25;2.28;;;;;;;29.59;37.05;99826.34;4346191;33;34357;-77
2022/07/04 05:15:11;;;;;;;2.72;2.00;;;;;;;29.59;37.33;99826.34;4346008;33;33743;-75
2022/07/04 05:17:38;;;;;;;3.00;1.98;;;;;;;29.94;37.56;99830.06;4345627;33;34801;-77
2022/07/04 05:20:07;;;;;;;2.87;1.73;;;;;;;30.38;35.10;99826.66;4346241;33;34193;-75
2022/07/04 05:22:35;;;;;;;2.42;1.67;;;;;;;30.74;33.17;99830.69;4345898;33;34146;-76
2022/07/04 05:25:03;;;;;;;2.33;1.52;;;;;;;30.73;33.68;99836.66;4345914;33;33266;-76
2022/07/04 05:27:30;;;;;;;3.28;2.20;;;;;;;31.06;33.46;99833.84;4345973;33;34630;-76
2022/07/04 05:29:58;;;;;;;3.20;2.05;;;;;;;30.60;35.80;99836.13;4356671;32;33999;-76
2022/07/04 05:32:26;;;;;;;2.45;1.90;;;;;;;31.17;34.37;99833.94;4345441;33;34174;-75
2022/07/04 05:34:54;;;;;;;2.55;1.65;;;;;;;30.55;36.02;99842.06;4346069;33;33561;-76
2022/07/04 05:37:22;;;;;;;2.87;1.92;;;;;;;31.07;33.30;99837.44;4345562;33;34749;-77
2022/07/04 05:39:49;;;;;;;3.37;1.90;;;;;;;30.54;33.92;99832.06;4346107;33;34718;-76
2022/07/04 05:42:17;;;;;;;4.22;1.90;;;;;;;31.07;34.25;99841.06;4345765;33;34533;-76
2022/07/04 05:44:44;;;;;;;2.40;1.90;;;;;;;31.63;32.55;99844.75;4345644;33;33655;-76
2022/07/04 05:47:12;;;;;;;3.00;1.80;;;;;;;31.05;34.18;99840.63;4345273;33;33739;-76
2022/07/04 05:49:40;;;;;;;2.75;1.80;;;;;;;31.39;32.05;99839.75;4345546;33;35081;-75
2022/07/04 05:52:07;;;;;;;2.92;1.95;;;;;;;31.65;31.14;99849.97;4345561;33;34949;-76
2022/07/04 05:54:35;;;;;;;2.58;2.00;;;;;;;31.74;33.40;99847.63;4345697;33;34306;-76
2022/07/04 05:57:03;;;;;;;3.20;1.92;;;;;;;32.05;30.91;99845.44;4348789;32;34369;-76
2022/07/04 05:59:30;;;;;;;3.45;1.85;;;;;;;32.19;31.31;99848.34;4360038;32;34155;-75
2022/07/04 06:01:58;;;;;;;2.17;1.80;;;;;;;32.42;31.41;99847.22;4356581;32;33996;-75
2022/07/04 06:04:26;;;;;;;2.60;1.92;;;;;;;32.60;30.80;99847.34;4358752;32;33570;-74
2022/07/04 06:06:53;;;;;;;3.03;1.85;;;;;;;32.18;31.67;99849.56;4361449;32;34091;-75
2022/07/04 06:09:20;;;;;;;2.20;1.67;;;;;;;32.55;30.04;99840.09;4363532;32;33945;-73
2022/07/04 06:11:48;;;;;;;4.50;2.30;;;;;;;32.97;29.73;99840.59;4363841;32;34531;-75
2022/07/04 06:14:16;;;;;;;2.47;1.80;;;;;;;33.02;29.81;99840.19;4374499;32;34325;-76
2022/07/04 06:16:43;;;;;;;2.35;1.67;;;;;;;32.86;30.83;99834.97;4363718;32;34108;-75
2022/07/04 06:19:11;;;;;;;2.47;1.73;;;;;;;33.38;29.35;99841.06;4363654;32;35219;-75
2022/07/04 06:21:39;;;;;;;2.30;1.67;;;;;;;33.01;29.76;99839.41;4363405;32;35022;-77
2022/07/04 06:24:06;;;;;;;2.28;1.70;;;;;;;33.62;29.31;99833.84;4374915;32;33743;-79
2022/07/04 06:26:34;;;;;;;2.30;1.75;;;;;;;34.33;26.92;99834.88;4363420;32;34039;-72
2022/07/04 06:29:02;;;;;;;1.98;1.67;;;;;;;34.54;26.76;99842.44;4363261;32;34167;-80
2022/07/04 06:31:29;;;;;;;2.50;1.73;;;;;;;34.46;26.85;99841.66;4375095;32;34382;-73
2022/07/04 06:36:44;;;;;;;2.10;1.45;;;;;;;34.09;27.22;99836.56;4363376;32;34762;-74
2022/07/04 06:39:12;;;;;;;1.98;1.42;;;;;;;34.50;27.39;99848.09;4363487;32;35241;-74
2022/07/04 06:41:39;;;;;;;2.87;2.03;;;;;;;34.70;26.06;99844.78;4363695;32;34185;-74
2022/07/04 06:44:07;;;;;;;2.70;1.80;;;;;;;34.51;27.11;99840.44;4363503;32;33540;-74
2022/07/04 06:46:40;;;;;;;1.77;1.37;;;;;;;34.82;26.41;99835.09;4363807;32;34098;-75
2022/07/04 06:49:07;;;;;;;1.70;1.60;;;;;;;35.25;25.44;99838.41;4356143;32;33816;-74
2022/07/04 06:51:35;;;;;;;2.15;1.60;;;;;;;35.55;24.82;99842.56;4362955;32;33667;-73
2022/07/04 06:54:03;;;;;;;2.53;1.50;;;;;;;35.34;25.15;99837.94;4363259;32;33767;-75
2022/07/04 06:56:30;;;;;;;2.55;1.55;;;;;;;34.85;27.41;99840.69;4349616;32;33870;-71
2022/07/04 06:58:58;;;;;;;2.03;1.48;;;;;;;34.73;27.57;99846.78;4348372;33;34335;-72
2022/07/04 07:01:26;;;;;;;2.12;1.55;;;;;;;35.23;25.60;99842.84;4356022;32;33994;-71
2022/07/04 07:03:53;;;;;;;2.03;1.50;;;;;;;35.43;25.59;99841.09;4361938;32;33790;-72
2022/07/04 07:06:23;;;;;;;1.55;1.33;;;;;;;35.32;25.68;99843.19;4332346;32;33864;-71
2022/07/04 07:08:50;;;;;;;2.62;1.83;;;;;;;35.57;24.18;99848.59;4331952;33;35043;-71
2022/07/04 07:11:19;;;;;;;1.70;1.33;;;;;;;35.30;25.42;99840.00;4332398;33;34229;-70
2022/07/04 07:13:49;;;;;;;2.78;1.50;;;;;;;35.14;25.68;99846.13;4332567;33;33821;-70
2022/07/04 07:16:18;;;;;;;2.08;1.60;;;;;;;35.53;24.68;99845.84;4332168;33;34905;-71
2022/07/04 07:18:46;;;;;;;1.85;1.65;;;;;;;35.22;26.12;99838.44;4318647;33;34975;-70
2022/07/04 07:21:13;;;;;;;1.83;1.30;;;;;;;35.82;24.62;99841.97;4331962;33;35305;-71
2022/07/04 07:23:41;;;;;;;2.12;1.55;;;;;;;35.73;24.53;99843.25;4332073;33;34362;-71
2022/07/04 07:26:09;;;;;;;2.47;1.27;;;;;;;36.11;23.76;99840.44;4332163;33;34598;-71
2022/07/04 07:28:37;;;;;;;1.98;1.30;;;;;;;36.83;23.65;99842.38;4332215;33;33863;-71
2022/07/04 07:31:04;;;;;;;2.53;1.62;;;;;;;36.73;22.19;99848.97;4332082;33;34030;-72
2022/07/04 07:33:32;;;;;;;2.33;1.62;;;;;;;36.95;22.39;99849.47;4331942;33;34214;-71
2022/07/04 07:35:59;;;;;;;2.85;1.65;;;;;;;36.92;22.01;99847.50;4331784;33;34055;-70
2022/07/04 07:38:27;;;;;;;3.03;1.52;;;;;;;36.50;23.34;99850.47;4331898;33;35076;-73
2022/07/04 07:40:54;;;;;;;2.60;1.40;;;;;;;35.25;25.29;99846.88;4332248;33;34315;-77
2022/07/04 07:43:22;;;;;;;1.20;1.10;;;;;;;35.45;23.24;99840.69;4332285;33;33219;-77
2022/07/04 07:45:50;;;;;;;1.30;1.20;;;;;;;34.33;25.86;99840.53;4332098;33;34021;-69
2022/07/04 07:48:17;;;;;;;2.65;1.30;;;;;;;33.50;25.15;99842.69;4331979;33;34289;-67
2022/07/04 07:50:44;;;;;;;2.30;1.42;;;;;;;34.07;25.22;99836.97;4331659;33;34235;-76
2022/07/04 07:53:12;;;;;;;0.85;0.85;;;;;;;34.42;25.63;99835.25;4331133;33;33858;-71
2022/07/04 07:55:40;;;;;;;1.40;1.30;;;;;;;34.18;26.40;99838.97;4333042;33;34936;-74
2022/07/04 07:58:07;;;;;;;1.20;1.10;;;;;;;34.22;25.09;99832.13;4333585;33;34310;-78
2022/07/04 08:00:35;;;;;;;2.05;1.30;;;;;;;33.37;25.86;99833.00;4333106;33;34050;-77
2022/07/04 08:06:11;;;;;;;1.92;1.27;;;;;;;33.20;25.78;99829.81;4333405;33;34116;-77
2022/07/04 08:08:40;;;;;;;1.33;1.20;;;;;;;33.78;26.60;99821.34;4332907;33;34295;-73
2022/07/04 08:11:08;;;;;;;1.62;1.30;;;;;;;33.35;25.47;99824.19;4333115;33;34342;-68
2022/07/04 08:13:37;;;;;;;2.00;1.25;;;;;;;33.90;25.24;99807.66;4333409;33;33813;-67
2022/07/04 08:16:05;;;;;;;1.30;1.20;;;;;;;34.28;24.38;99815.59;4339170;33;34023;-78
2022/07/04 08:18:33;;;;;;;1.45;0.90;;;;;;;34.24;26.23;99809.97;4347667;33;33917;-78
2022/07/04 08:21:02;;;;;;;1.08;0.98;;;;;;;34.21;25.55;99815.63;4354073;32;34120;-78
2022/07/04 08:23:38;;;;;;;1.10;1.00;;;;;;;33.86;24.10;99820.13;4362515;32;33755;-66
2022/07/04 08:26:23;;;;;;;1.83;1.17;;;;;;;34.54;23.29;99819.91;4360710;32;34817;-67
2022/07/04 08:28:51;;;;;;;0.98;0.90;;;;;;;34.71;23.97;99812.59;4362367;32;34989;-77
2022/07/04 08:31:19;;;;;;;1.17;1.00;;;;;;;34.07;23.42;99808.81;4354594;32;34664;-77
2022/07/04 08:34:07;;;;;;;1.83;1.10;;;;;;;34.00;23.96;99810.84;4347406;33;33419;-78
2022/07/04 08:36:34;;;;;;;1.70;1.23;;;;;;;34.09;24.35;99816.84;4347689;33;33906;-79
2022/07/04 08:39:01;;;;;;;1.25;1.10;;;;;;;33.46;24.62;99811.72;4347304;33;33947;-81
2022/07/04 08:41:34;;;;;;;1.10;1.00;;;;;;;32.84;24.57;99814.88;4360437;32;35189;-69
2022/07/04 08:44:02;;;;;;;1.20;0.93;;;;;;;32.92;23.87;99822.12;4348888;32;34026;-73
2022/07/04 08:46:30;;;;;;;1.48;1.02;;;;;;;33.36;23.71;99825.81;4362100;32;34960;-69
2022/07/04 08:48:58;;;;;;;1.73;0.98;;;;;;;33.20;22.80;99823.41;4362234;32;33983;-73
2022/07/04 08:52:15;;;;;;;1.48;1.10;;;;;;;33.53;23.24;99818.56;4362207;32;34686;-76
2022/07/04 09:00:15;;;;;;;1.10;1.00;;;;;;;34.05;24.14;99822.47;4371455;32;34251;-76
2022/07/04 09:02:43;;;;;;;2.33;0.98;;;;;;;33.28;23.46;99816.53;4361973;32;35026;-76
2022/07/04 09:05:10;;;;;;;1.00;0.95;;;;;;;33.06;24.93;99818.53;4362044;32;33589;-69
2022/07/04 09:07:38;;;;;;;1.25;1.15;;;;;;;33.43;25.10;99814.53;4362206;32;33651;-67
2022/07/04 09:10:06;;;;;;;1.50;1.15;;;;;;;33.41;24.60;99814.12;4361740;32;33977;-74
2022/07/04 09:12:34;;;;;;;1.12;1.02;;;;;;;33.59;25.39;99811.31;4348937;32;35037;-77
2022/07/04 09:15:20;;;;;;;1.10;1.00;;;;;;;33.52;25.59;99823.34;4360908;32;34165;-72
2022/07/04 09:17:48;;;;;;;1.55;1.10;;;;;;;33.58;25.00;99815.31;4362212;32;33630;-72
2022/07/04 09:20:22;;;;;;;1.30;1.00;;;;;;;32.89;26.29;99811.66;4362162;32;35156;-73
2022/07/04 09:22:52;;;;;;;1.20;1.10;;;;;;;33.62;24.84;99819.78;4362134;32;35050;-69
2022/07/04 09:25:21;;;;;;;1.12;0.90;;;;;;;32.95;24.87;99817.72;4361994;32;34282;-70
2022/07/04 09:27:54;;;;;;;1.12;1.02;;;;;;;33.10;24.01;99808.13;4361875;32;34124;-70
2022/07/04 09:30:25;;;;;;;0.95;0.90;;;;;;;33.35;24.55;99813.75;4362194;32;34937;-69
2022/07/04 09:33:00;;;;;;;1.90;1.05;;;;;;;33.67;25.70;99813.75;4362235;32;34368;-77
2022/07/04 09:35:30;;;;;;;3.28;1.50;;;;;;;33.99;24.21;99807.22;4361912;32;33526;-70
2022/07/04 09:37:59;;;;;;;1.00;0.88;;;;;;;34.06;24.39;99800.75;4361964;32;34941;-69
2022/07/04 09:40:30;;;;;;;1.27;1.00;;;;;;;33.75;24.17;99808.09;4361494;32;33998;-71
2022/07/04 09:43:10;;;;;;;1.20;1.02;;;;;;;33.98;24.45;99813.28;4362667;32;33941;-72
2022/07/04 09:45:56;;;;;;;1.25;0.98;;;;;;;34.22;23.95;99803.94;4347473;32;33975;-71
2022/07/04 09:48:23;;;;;;;1.20;1.10;;;;;;;34.11;24.24;99806.81;4363779;32;34003;-71
2022/07/04 09:50:51;;;;;;;1.15;1.02;;;;;;;34.11;23.27;99804.00;4363430;32;35124;-71
2022/07/04 09:53:26;;;;;;;1.58;1.17;;;;;;;33.86;24.55;99806.84;4363583;32;33889;-71
2022/07/04 09:55:54;;;;;;;1.52;1.15;;;;;;;33.73;24.13;99802.06;4363382;32;33675;-71
2022/07/04 09:58:21;;;;;;;1.42;0.90;;;;;;;34.33;24.33;99797.47;4362266;32;33935;-70
2022/07/04 10:00:51;;;;;;;1.55;1.00;;;;;;;34.13;24.03;99812.03;4363546;32;34175;-74
2022/07/04 10:03:26;;;;;;;1.87;1.50;;;;;;;34.34;24.09;99796.25;4363544;32;33983;-72
2022/07/04 10:06:15;;;;;;;1.55;0.90;;;;;;;33.94;24.42;99789.97;4362176;32;33517;-76
2022/07/04 10:08:43;;;;;;;1.50;1.15;;;;;;;34.35;24.68;99789.41;4363580;32;34134;-70
2022/07/04 10:11:11;;;;;;;1.17;1.05;;;;;;;34.79;23.50;99779.53;4363085;32;33841;-73
2022/07/04 10:13:46;;;;;;;1.15;0.90;;;;;;;34.22;25.33;99795.50;4362589;32;34975;-75
2022/07/04 10:16:15;;;;;;;1.23;1.05;;;;;;;34.31;24.48;99793.03;4350275;32;33653;-75
2022/07/04 10:18:44;;;;;;;1.60;1.40;;;;;;;34.53;24.42;99785.28;4363145;32;34653;-75
2022/07/04 10:21:12;;;;;;;1.10;0.98;;;;;;;34.46;23.35;99770.44;4363688;32;34168;-79
2022/07/04 10:23:40;;;;;;;1.70;1.30;;;;;;;34.30;24.50;99765.31;4350042;32;34521;-73
2022/07/04 10:26:08;;;;;;;1.40;1.17;;;;;;;34.42;24.47;99766.84;4350281;32;34383;-73
2022/07/04 10:28:37;;;;;;;1.20;1.10;;;;;;;34.69;24.97;99761.47;4363577;32;34785;-74
2022/07/04 10:31:05;;;;;;;1.90;1.27;;;;;;;34.94;23.21;99747.19;4363310;32;34986;-75
2022/07/04 10:33:34;;;;;;;1.23;1.10;;;;;;;34.88;22.81;99760.94;4350247;32;34889;-76
2022/07/04 10:36:20;;;;;;;1.25;1.10;;;;;;;35.45;22.82;99759.66;4336301;33;33749;-74
2022/07/04 10:38:53;;;;;;;1.27;1.10;;;;;;;35.35;22.31;99754.91;4337791;32;34043;-71
2022/07/04 10:41:22;;;;;;;1.30;1.00;;;;;;;35.07;22.87;99739.03;4332479;33;35086;-73
2022/07/04 10:44:00;;;;;;;1.12;0.93;;;;;;;34.34;22.42;99734.28;4332819;33;33832;-73
2022/07/04 10:46:43;;;;;;;1.10;1.00;;;;;;;33.57;22.54;99737.78;4343382;33;34578;-73
2022/07/04 10:49:13;;;;;;;1.42;1.10;;;;;;;33.68;22.28;99736.56;4332640;33;33914;-73
2022/07/04 10:51:46;;;;;;;0.73;0.73;;;;;;;34.17;21.60;99744.44;4332553;33;34503;-72
2022/07/04 10:54:17;;;;;;;1.07;0.97;;;;;;;34.19;21.11;99748.47;4331662;33;34356;-73
2022/07/04 10:56:54;;;;;;;0.90;0.80;;;;;;;34.31;20.76;99733.09;4332247;33;33597;-73
2022/07/04 10:59:26;;;;;;;1.27;0.98;;;;;;;34.96;21.65;99738.31;4332457;33;33763;-74
2022/07/04 11:02:06;;;;;;;1.50;1.00;;;;;;;34.92;20.74;99729.88;4332491;33;33885;-73
2022/07/04 11:05:07;;;;;;;1.67;0.98;;;;;;;35.70;20.72;99731.19;4332562;33;34659;-73
2022/07/04 11:07:35;;;;;;;1.17;0.93;;;;;;;35.75;20.68;99727.13;4332127;33;33731;-75
2022/07/04 11:10:12;;;;;;;0.93;0.93;;;;;;;35.56;21.20;99736.97;4332209;33;34843;-73
2022/07/04 11:12:55;;;;;;;0.82;0.82;;;;;;;35.27;21.46;99725.16;4332212;33;34988;-72
2022/07/04 11:15:29;;;;;;;1.52;0.90;;;;;;;35.53;21.02;99729.31;4332726;33;33990;-73
2022/07/04 11:18:02;;;;;;;1.12;0.90;;;;;;;35.63;21.34;99713.50;4332512;33;34507;-72
2022/07/04 11:20:31;;;;;;;2.25;1.10;;;;;;;35.59;20.50;99705.06;4319283;33;33441;-74
2022/07/04 11:23:21;;;;;;;1.92;1.23;;;;;;;35.65;22.08;99714.72;4332001;33;34925;-73
2022/07/04 11:25:50;;;;;;;1.20;0.95;;;;;;;35.42;20.28;99712.53;4319611;33;34901;-74
2022/07/04 11:28:30;;;;;;;1.02;0.90;;;;;;;35.37;21.05;99700.91;4319359;33;34406;-73
2022/07/04 11:31:14;;;;;;;0.80;0.80;;;;;;;35.17;21.12;99706.34;4332366;33;34594;-75
2022/07/04 11:33:43;;;;;;;1.80;0.90;;;;;;;34.91;20.50;99686.81;4332342;33;34081;-73
2022/07/04 11:36:14;;;;;;;0.82;0.82;;;;;;;34.72;21.48;99676.09;4318957;33;34160;-73
2022/07/04 11:38:50;;;;;;;1.58;1.08;;;;;;;35.15;19.31;99683.41;4331804;33;33690;-72
2022/07/04 11:47:03;;;;;;;1.40;1.02;;;;;;;35.19;21.12;99681.34;4340424;32;34987;-79
2022/07/04 11:49:31;;;;;;;0.88;0.85;;;;;;;36.02;19.71;99673.50;4362063;32;33726;-77
2022/07/04 11:51:58;;;;;;;1.00;0.90;;;;;;;36.24;19.43;99661.94;4361120;32;34742;-78
2022/07/04 11:54:26;;;;;;;0.90;0.80;;;;;;;36.08;20.65;99668.19;4361802;32;34138;-77
2022/07/04 11:57:21;;;;;;;0.73;0.73;;;;;;;36.12;18.33;99671.78;4361772;32;34311;-78
2022/07/04 12:00:00;;;;;;;1.12;0.80;;;;;;;35.82;17.31;99676.19;4361909;32;34442;-77
2022/07/04 12:02:29;;;;;;;1.02;0.90;;;;;;;36.07;18.25;99673.06;4361592;32;34754;-75
2022/07/04 12:04:57;;;;;;;1.12;0.82;;;;;;;35.38;18.13;99663.81;4360699;32;35126;-76
2022/07/04 12:07:32;;;;;;;1.10;0.88;;;;;;;35.32;19.21;99665.50;4361188;32;33946;-77